Main page
METAR-TAF:

METAR-TAF

Airports :

La Crosse Regional Airport

La Crosse, Wisconsin, United States

latitude: 43-52-46N, longitude: 091-15-24W, elevation: 653 ft

Current weather observation

The report was made 55 minutes ago, at 19:53 UTC
Wind 10 mph from the Southwest
Temperature 57°F
Humidity 41%
Pressure 30.00 in. Hg
Visibility: 10 miles
Clear sky

METAR: KLSE 011953Z 23009KT 10SM CLR 14/01 A3000 RMK AO2 SLP164 T01440011

Time: 15:48 (20:48 UTC)

Forecast

The report was made 3 hours and 28 minutes ago, at 17:20 UTC
Forecast valid from 01 at 18 UTC to 02 at 18 UTC
Wind 9 mph from the Southeast
Visibility: 6 miles
Scattered clouds at a height of 10000 ft
From 02 at 1200 UTC
Wind 10 mph from the Southeast
Visibility: 6 miles
Broken clouds at a height of 8000 ft

TAF: KLSE 011720Z 0118/0218 13008KT P6SM SCT100 FM021200 14009KT P6SM BKN080

Weather observations and forecasts of more than 4000 airports (METAR and TAF reports).

The available stations are represented by yellow and red dots on the map.

Hover mouse over dot to see the name of the station.

Then click to see weather observations and forecasts.

To change the map : click on the green buttons with a black cross to zoom in, on the green button with a dash to zoom out, or on the green arrows for adjacent maps.


METAR-TAF: